Time;durP1;ratioP1;P1;durP2;ratioP2;P2;SDS_P1;SDS_P2;PMS_P1;PMS_P2;Temp;Humidity;BMP_temperature;BMP_pressure;BME280_temperature;BME280_humidity;BME280_pressure;Samples;Min_cycle;Max_cycle;Signal;HPM_P1;HPM_P2
2022/06/19 00:00:34;;;;;;;8.02;2.17;;;14.60;99.90;;;;;;5045762;28;20042;-65
2022/06/19 00:03:01;;;;;;;16.77;3.33;;;14.50;99.90;;;;;;5029852;28;20393;-65
2022/06/19 00:05:27;;;;;;;12.05;2.42;;;14.60;99.90;;;;;;5031038;28;20049;-65
2022/06/19 00:07:53;;;;;;;11.30;3.03;;;14.60;99.90;;;;;;5031195;28;20128;-65
2022/06/19 00:10:19;;;;;;;10.80;2.83;;;14.60;99.90;;;;;;5033020;28;20048;-65
2022/06/19 00:12:44;;;;;;;9.55;2.22;;;14.50;99.90;;;;;;5031697;28;20045;-65
2022/06/19 00:15:10;;;;;;;8.95;3.03;;;14.50;99.90;;;;;;5032484;28;20398;-66
2022/06/19 00:17:36;;;;;;;9.85;2.78;;;14.50;99.90;;;;;;5031701;28;20033;-66
2022/06/19 00:20:04;;;;;;;17.80;3.80;;;14.50;99.90;;;;;;5031555;28;20044;-65
2022/06/19 00:22:30;;;;;;;7.78;2.20;;;14.60;99.90;;;;;;5031464;28;20159;-65
2022/06/19 00:24:56;;;;;;;11.85;3.05;;;14.60;99.90;;;;;;5032110;28;20521;-65
2022/06/19 00:27:23;;;;;;;16.02;3.30;;;14.60;99.90;;;;;;5030542;28;20125;-65
2022/06/19 00:29:49;;;;;;;12.60;3.10;;;14.60;99.90;;;;;;5031934;28;20041;-66
2022/06/19 00:32:15;;;;;;;16.33;3.38;;;14.70;99.90;;;;;;5031529;28;20072;-65
2022/06/19 00:34:40;;;;;;;10.13;2.55;;;14.70;99.90;;;;;;5014124;28;20045;-65
2022/06/19 00:37:07;;;;;;;11.65;2.95;;;;;;;;;;5030523;28;20051;-65
2022/06/19 00:39:39;;;;;;;12.15;2.35;;;14.60;99.90;;;;;;5032522;28;20041;-65
2022/06/19 00:42:06;;;;;;;12.63;3.45;;;14.80;99.90;;;;;;5013763;28;20107;-65
2022/06/19 00:44:32;;;;;;;10.40;2.88;;;14.80;99.90;;;;;;5031051;28;20034;-65
2022/06/19 00:47:25;;;;;;;16.15;3.88;;;14.70;99.90;;;;;;5029589;28;20375;-65
2022/06/19 00:49:57;;;;;;;9.20;3.08;;;15.00;99.90;;;;;;5030036;28;20045;-65
2022/06/19 00:52:31;;;;;;;12.40;2.95;;;14.90;99.90;;;;;;5031087;28;20517;-65
2022/06/19 00:55:11;;;;;;;11.68;3.42;;;15.00;99.90;;;;;;5030894;28;20037;-65
2022/06/19 00:57:42;;;;;;;13.27;3.40;;;14.80;99.90;;;;;;5031020;28;20041;-65
2022/06/19 01:00:26;;;;;;;15.25;3.22;;;14.80;99.90;;;;;;5030831;28;20040;-65
2022/06/19 01:02:55;;;;;;;17.58;4.40;;;14.80;99.90;;;;;;5031033;28;20041;-65
2022/06/19 01:05:23;;;;;;;13.70;4.13;;;14.80;99.90;;;;;;5032115;28;20064;-65
2022/06/19 01:07:49;;;;;;;8.10;2.30;;;14.80;99.90;;;;;;5029904;28;20512;-65
2022/06/19 01:10:15;;;;;;;9.77;3.58;;;14.80;99.90;;;;;;5030748;28;20041;-66
2022/06/19 01:12:42;;;;;;;9.40;2.90;;;14.80;99.90;;;;;;5030872;28;20038;-65
2022/06/19 01:15:12;;;;;;;11.38;2.90;;;14.70;99.90;;;;;;5013895;28;20510;-65
2022/06/19 01:17:38;;;;;;;12.13;3.15;;;14.80;99.90;;;;;;5018447;28;20080;-65
2022/06/19 01:20:10;;;;;;;13.63;3.50;;;14.70;99.90;;;;;;5034227;28;20095;-65
2022/06/19 01:23:03;;;;;;;19.90;3.55;;;14.80;99.90;;;;;;5035241;28;20076;-65
2022/06/19 01:25:32;;;;;;;18.52;4.47;;;14.70;99.90;;;;;;5035786;28;20120;-65
2022/06/19 01:30:51;;;;;;;13.52;3.00;;;14.70;99.90;;;;;;5033171;28;20057;-65
2022/06/19 01:33:42;;;;;;;18.33;3.17;;;14.80;99.90;;;;;;5018376;28;20401;-65
2022/06/19 01:36:12;;;;;;;12.38;3.03;;;14.70;99.90;;;;;;5031506;28;20744;-65
2022/06/19 01:38:39;;;;;;;11.85;2.70;;;14.60;99.90;;;;;;5034696;28;20056;-65
2022/06/19 01:41:11;;;;;;;10.85;2.92;;;14.60;99.90;;;;;;5033996;28;20046;-65
2022/06/19 01:43:37;;;;;;;10.55;2.80;;;14.60;99.90;;;;;;5034975;28;20041;-65
2022/06/19 01:46:04;;;;;;;10.55;2.85;;;14.60;99.90;;;;;;5033702;28;20063;-65
2022/06/19 01:48:32;;;;;;;11.45;2.35;;;14.70;99.90;;;;;;5035554;28;20042;-65
2022/06/19 01:51:00;;;;;;;14.27;2.53;;;14.60;99.90;;;;;;5034163;28;20116;-65
2022/06/19 01:53:39;;;;;;;14.63;3.70;;;14.50;99.90;;;;;;5018102;28;20400;-65
2022/06/19 01:56:08;;;;;;;10.45;3.22;;;14.50;99.90;;;;;;5033550;28;20494;-64
2022/06/19 01:58:36;;;;;;;10.25;2.65;;;14.60;99.90;;;;;;5033731;28;20394;-65
2022/06/19 02:01:05;;;;;;;13.02;2.45;;;14.40;99.90;;;;;;5035027;28;20077;-65
2022/06/19 02:03:40;;;;;;;11.85;3.05;;;14.40;99.90;;;;;;5035188;28;20045;-65
2022/06/19 02:06:07;;;;;;;;;;;14.50;99.90;;;;;;5032961;28;20120;-65
2022/06/19 02:08:35;;;;;;;15.40;3.08;;;14.40;99.90;;;;;;5033842;28;19967;-65
2022/06/19 02:11:01;;;;;;;10.68;3.20;;;14.30;99.90;;;;;;5034747;28;20041;-64
2022/06/19 02:13:29;;;;;;;12.07;3.20;;;14.40;99.90;;;;;;5033100;28;20120;-64
2022/06/19 02:15:55;;;;;;;11.40;3.38;;;14.20;99.90;;;;;;5033369;28;20041;-64
2022/06/19 02:18:34;;;;;;;11.60;3.13;;;14.50;99.90;;;;;;5034134;28;20117;-64
2022/06/19 02:20:59;;;;;;;16.23;3.58;;;14.40;99.90;;;;;;5033298;28;20541;-64
2022/06/19 02:23:36;;;;;;;14.15;3.33;;;14.30;99.90;;;;;;5034915;28;20042;-64
2022/06/19 02:26:05;;;;;;;15.93;3.20;;;14.50;99.90;;;;;;5032270;28;20116;-64
2022/06/19 02:28:36;;;;;;;12.93;3.15;;;14.40;99.90;;;;;;5017370;28;20437;-64
2022/06/19 02:31:03;;;;;;;13.48;3.10;;;14.30;99.90;;;;;;5033023;28;20041;-65
2022/06/19 02:33:31;;;;;;;16.50;3.40;;;14.60;99.90;;;;;;5032903;28;20033;-65
2022/06/19 02:35:57;;;;;;;13.95;3.50;;;14.50;99.90;;;;;;5033203;28;20394;-65
2022/06/19 02:38:23;;;;;;;17.92;3.35;;;14.30;99.90;;;;;;5033434;28;20029;-65
2022/06/19 02:41:09;;;;;;;14.35;3.55;;;14.40;99.90;;;;;;5015691;28;20076;-64
2022/06/19 02:43:35;;;;;;;14.38;3.10;;;14.50;99.90;;;;;;5033672;28;20049;-65
2022/06/19 02:46:06;;;;;;;16.63;2.85;;;14.40;99.90;;;;;;5032672;28;20058;-65
2022/06/19 02:48:33;;;;;;;13.02;3.92;;;14.70;99.90;;;;;;5032502;28;20081;-64
2022/06/19 02:51:00;;;;;;;10.65;4.10;;;14.40;99.90;;;;;;5032554;28;20068;-64
2022/06/19 02:53:27;;;;;;;9.27;2.80;;;14.30;99.90;;;;;;5033442;28;20092;-64
2022/06/19 02:55:53;;;;;;;13.50;3.28;;;14.30;99.90;;;;;;5033945;28;20060;-64
2022/06/19 02:58:20;;;;;;;17.75;3.70;;;14.40;99.90;;;;;;5034543;28;20049;-64
2022/06/19 03:00:48;;;;;;;12.88;3.22;;;14.50;99.90;;;;;;5033289;28;20084;-64
2022/06/19 03:03:23;;;;;;;9.52;2.83;;;14.40;99.90;;;;;;5032899;28;20041;-64
2022/06/19 03:05:48;;;;;;;9.40;2.63;;;14.40;99.90;;;;;;5033600;28;20476;-63
2022/06/19 03:08:14;;;;;;;12.43;2.72;;;14.50;99.90;;;;;;5033109;28;20053;-64
2022/06/19 03:10:42;;;;;;;14.10;3.17;;;14.40;99.90;;;;;;5033078;28;20049;-64
2022/06/19 03:13:08;;;;;;;10.20;3.72;;;14.30;99.90;;;;;;5015950;28;20041;-64
2022/06/19 03:15:34;;;;;;;13.48;3.15;;;14.40;99.90;;;;;;5033160;28;20056;-64
2022/06/19 03:17:59;;;;;;;13.98;4.20;;;14.40;99.90;;;;;;5032492;28;20041;-64
2022/06/19 03:20:26;;;;;;;22.70;5.70;;;;;;;;;;5033830;28;20045;-65
2022/06/19 03:22:52;;;;;;;19.52;4.55;;;14.10;99.90;;;;;;5031056;28;20041;-65
2022/06/19 03:25:19;;;;;;;16.33;4.53;;;14.00;99.90;;;;;;5032420;28;20048;-64
2022/06/19 03:27:44;;;;;;;15.20;3.40;;;14.00;99.90;;;;;;5032280;28;20565;-64
2022/06/19 03:30:13;;;;;;;17.15;4.30;;;14.10;99.90;;;;;;5014965;28;20128;-64
2022/06/19 03:32:40;;;;;;;13.77;3.42;;;;;;;;;;5033634;28;20041;-64
2022/06/19 03:35:06;;;;;;;18.85;3.42;;;;;;;;;;5031680;28;20033;-64
2022/06/19 03:37:32;;;;;;;12.52;3.17;;;13.80;99.90;;;;;;5031448;28;20037;-64
2022/06/19 03:39:58;;;;;;;15.85;4.40;;;;;;;;;;5031470;28;20064;-64
2022/06/19 03:42:23;;;;;;;12.63;3.78;;;13.50;99.90;;;;;;5033562;28;20037;-64
2022/06/19 03:44:49;;;;;;;20.58;3.80;;;13.40;99.90;;;;;;5032126;28;20510;-64
2022/06/19 03:47:20;;;;;;;15.88;3.25;;;13.30;99.90;;;;;;5015624;28;20061;-64
2022/06/19 03:49:46;;;;;;;13.60;3.00;;;;;;;;;;5032201;28;20083;-63
2022/06/19 03:52:12;;;;;;;14.38;2.83;;;;;;;;;;5031694;28;20072;-64
2022/06/19 03:54:38;;;;;;;11.57;3.08;;;13.40;99.90;;;;;;5031964;28;20044;-64
2022/06/19 03:57:04;;;;;;;11.98;3.00;;;13.30;99.90;;;;;;5030677;28;20041;-63
2022/06/19 03:59:30;;;;;;;10.25;2.55;;;;;;;;;;5031816;28;20077;-64
2022/06/19 04:01:56;;;;;;;10.48;2.40;;;;;;;;;;5032477;28;20045;-63
2022/06/19 04:04:22;;;;;;;9.40;2.35;;;13.20;99.90;;;;;;5030837;28;20037;-63
2022/06/19 04:06:48;;;;;;;17.05;4.15;;;13.00;99.90;;;;;;5032732;28;20041;-64
2022/06/19 04:09:16;;;;;;;12.15;3.15;;;13.10;99.90;;;;;;5032993;28;20030;-64
2022/06/19 04:11:42;;;;;;;10.48;2.70;;;13.10;99.90;;;;;;5030916;28;20046;-64
2022/06/19 04:14:12;;;;;;;10.98;2.80;;;12.90;99.90;;;;;;5032644;28;20394;-64
2022/06/19 04:16:38;;;;;;;12.13;2.53;;;12.90;99.90;;;;;;5031871;28;20038;-64
2022/06/19 04:19:06;;;;;;;10.02;3.05;;;12.70;99.90;;;;;;5030015;28;20091;-64
2022/06/19 04:21:35;;;;;;;8.43;2.65;;;12.50;99.90;;;;;;5014956;28;20045;-63
2022/06/19 04:24:04;;;;;;;13.52;2.40;;;12.50;99.90;;;;;;5032200;28;20478;-63
2022/06/19 04:26:34;;;;;;;14.27;2.42;;;12.50;99.90;;;;;;5031948;28;20045;-63
2022/06/19 04:29:00;;;;;;;8.52;2.13;;;;;;;;;;5014257;28;20049;-63
2022/06/19 04:31:26;;;;;;;10.25;2.38;;;12.30;99.90;;;;;;5031195;28;20124;-64
2022/06/19 04:33:52;;;;;;;11.00;2.83;;;12.30;99.90;;;;;;5029723;28;20120;-63
2022/06/19 04:36:19;;;;;;;13.65;2.45;;;12.30;99.90;;;;;;5031429;28;20048;-64
2022/06/19 04:38:48;;;;;;;7.90;1.83;;;12.30;99.90;;;;;;5031047;28;20049;-64
2022/06/19 04:41:17;;;;;;;10.57;2.88;;;12.20;99.90;;;;;;5032453;28;20402;-63
2022/06/19 04:43:43;;;;;;;9.35;2.60;;;12.20;99.90;;;;;;5014655;28;20402;-63
2022/06/19 04:46:10;;;;;;;14.15;3.65;;;12.20;99.90;;;;;;5029949;28;20065;-64
2022/06/19 04:48:36;;;;;;;12.05;3.05;;;12.20;99.90;;;;;;5030994;28;20049;-63
2022/06/19 04:51:02;;;;;;;20.80;3.78;;;12.30;99.90;;;;;;5030078;28;20044;-64
2022/06/19 04:53:28;;;;;;;14.43;3.67;;;12.30;99.90;;;;;;5031629;28;20468;-64
2022/06/19 04:55:55;;;;;;;15.18;2.95;;;12.30;99.90;;;;;;5031838;28;20045;-63
2022/06/19 04:58:22;;;;;;;10.02;3.03;;;12.40;99.90;;;;;;5030981;28;20036;-63
2022/06/19 05:00:49;;;;;;;11.38;2.92;;;12.40;99.90;;;;;;5031056;28;20185;-63
2022/06/19 05:03:16;;;;;;;13.00;2.30;;;12.40;99.90;;;;;;5032274;28;20084;-63
2022/06/19 05:05:42;;;;;;;12.27;2.38;;;12.40;99.90;;;;;;5030924;28;20054;-63
2022/06/19 05:08:07;;;;;;;10.13;2.80;;;12.30;99.90;;;;;;5029956;28;20124;-63
2022/06/19 05:10:33;;;;;;;8.48;2.22;;;12.30;99.90;;;;;;5030863;28;20407;-63
2022/06/19 05:12:59;;;;;;;10.73;2.95;;;12.30;99.90;;;;;;5030370;28;20139;-63
2022/06/19 05:15:24;;;;;;;10.80;2.67;;;12.30;99.90;;;;;;5031390;28;20111;-62
2022/06/19 05:17:50;;;;;;;9.40;2.58;;;12.30;99.90;;;;;;5030102;28;20041;-63
2022/06/19 05:20:17;;;;;;;13.10;3.03;;;12.30;99.90;;;;;;5030990;28;20124;-63
2022/06/19 05:22:42;;;;;;;14.50;2.88;;;12.30;99.90;;;;;;5029974;28;20037;-63
2022/06/19 05:25:08;;;;;;;11.30;2.60;;;12.30;99.90;;;;;;5031756;28;20095;-63
2022/06/19 05:27:40;;;;;;;9.80;2.72;;;12.30;99.90;;;;;;5034769;28;20062;-63
2022/06/19 05:30:08;;;;;;;10.82;2.72;;;12.30;99.90;;;;;;5039852;28;20053;-63
2022/06/19 05:32:34;;;;;;;13.95;2.83;;;12.30;99.90;;;;;;5042624;28;20080;-63
2022/06/19 05:34:59;;;;;;;10.48;2.83;;;12.30;99.90;;;;;;5046463;28;20087;-62
2022/06/19 05:37:25;;;;;;;10.43;2.33;;;12.40;99.90;;;;;;5031398;28;20037;-63
2022/06/19 05:39:51;;;;;;;17.05;3.33;;;12.40;99.90;;;;;;5040882;28;20037;-63
2022/06/19 05:42:18;;;;;;;13.32;2.45;;;12.40;99.90;;;;;;5041259;28;20367;-63
2022/06/19 05:44:44;;;;;;;12.05;2.25;;;12.50;99.90;;;;;;5027423;28;20042;-63
2022/06/19 05:47:10;;;;;;;9.43;2.20;;;12.50;99.90;;;;;;5029940;28;20132;-63
2022/06/19 05:49:35;;;;;;;12.60;2.20;;;12.60;99.90;;;;;;5034074;28;20422;-63
2022/06/19 05:52:02;;;;;;;10.40;2.38;;;12.60;99.90;;;;;;5030014;28;20038;-63
2022/06/19 05:54:29;;;;;;;8.85;2.55;;;12.70;99.90;;;;;;5035028;28;20038;-63
2022/06/19 05:56:55;;;;;;;11.73;2.60;;;12.70;99.90;;;;;;5046185;28;20111;-63
2022/06/19 05:59:22;;;;;;;13.35;3.13;;;12.70;99.90;;;;;;5045312;28;20052;-63
2022/06/19 06:01:47;;;;;;;16.42;2.75;;;12.80;99.90;;;;;;5030604;28;20064;-63
2022/06/19 06:04:13;;;;;;;8.38;1.88;;;12.80;99.90;;;;;;5032378;28;20045;-63
2022/06/19 06:06:40;;;;;;;7.75;1.80;;;12.80;99.90;;;;;;5051629;28;20056;-63
2022/06/19 06:09:06;;;;;;;10.20;2.10;;;12.80;99.90;;;;;;5050802;28;20049;-63
2022/06/19 06:11:32;;;;;;;7.60;1.73;;;12.90;99.90;;;;;;5046723;28;20052;-63
2022/06/19 06:13:58;;;;;;;8.90;2.47;;;12.90;99.90;;;;;;5052192;28;20504;-63
2022/06/19 06:16:25;;;;;;;14.18;2.35;;;12.90;99.90;;;;;;5034905;28;20037;-63
2022/06/19 06:18:51;;;;;;;15.60;2.97;;;12.90;99.90;;;;;;5049885;28;20056;-63
2022/06/19 06:21:22;;;;;;;8.05;2.13;;;13.00;99.90;;;;;;5052771;28;20045;-63
2022/06/19 06:23:49;;;;;;;13.73;2.90;;;13.00;99.90;;;;;;5034653;28;20689;-63
2022/06/19 06:26:24;;;;;;;8.38;1.98;;;13.10;99.90;;;;;;5033166;28;20064;-63
2022/06/19 06:28:52;;;;;;;11.38;3.08;;;13.20;99.90;;;;;;5034182;28;20049;-63
2022/06/19 06:31:18;;;;;;;8.77;2.00;;;13.20;99.90;;;;;;5052253;28;20111;-63
2022/06/19 06:33:45;;;;;;;11.13;2.40;;;13.20;99.90;;;;;;5050339;28;20037;-63
2022/06/19 06:36:11;;;;;;;15.15;2.30;;;13.30;99.90;;;;;;5045481;28;20045;-63
2022/06/19 06:38:37;;;;;;;9.18;2.10;;;13.30;99.90;;;;;;5048748;28;20037;-63
2022/06/19 06:41:08;;;;;;;8.95;2.35;;;13.30;99.90;;;;;;5050227;28;20104;-63
2022/06/19 06:43:38;;;;;;;8.50;2.85;;;;;;;;;;5041416;28;20048;-63
2022/06/19 06:46:21;;;;;;;12.90;2.75;;;13.40;99.90;;;;;;5045920;28;20054;-63
2022/06/19 06:48:49;;;;;;;9.85;2.53;;;13.40;99.90;;;;;;5039659;28;20053;-63
2022/06/19 06:51:21;;;;;;;10.65;2.53;;;13.50;99.90;;;;;;5037219;28;20037;-62
2022/06/19 06:53:46;;;;;;;10.18;2.10;;;13.50;99.90;;;;;;5030645;28;20486;-63
2022/06/19 06:56:12;;;;;;;11.18;2.30;;;13.50;99.90;;;;;;5037074;28;20033;-63
2022/06/19 06:58:39;;;;;;;16.92;3.05;;;13.50;99.90;;;;;;5050722;28;20033;-63
2022/06/19 07:01:18;;;;;;;8.30;2.15;;;13.60;99.90;;;;;;5050346;28;20040;-63
2022/06/19 07:03:44;;;;;;;9.25;2.65;;;13.60;99.90;;;;;;5038488;28;20088;-63
2022/06/19 07:06:11;;;;;;;11.10;2.83;;;13.60;99.90;;;;;;5029903;28;20095;-62
2022/06/19 07:08:37;;;;;;;9.70;2.53;;;13.60;99.90;;;;;;5029878;28;20045;-63
2022/06/19 07:11:03;;;;;;;8.73;2.30;;;13.70;99.90;;;;;;5032093;28;20263;-63
2022/06/19 07:13:29;;;;;;;6.47;2.10;;;13.70;99.90;;;;;;5029268;28;20546;-63
2022/06/19 07:15:55;;;;;;;9.85;2.95;;;13.70;99.90;;;;;;5029302;28;20037;-63
2022/06/19 07:18:20;;;;;;;12.35;2.83;;;13.80;99.90;;;;;;5029963;28;20037;-63
2022/06/19 07:20:46;;;;;;;13.70;2.72;;;13.90;99.90;;;;;;5030925;28;20045;-63
2022/06/19 07:23:12;;;;;;;9.80;2.17;;;13.90;99.90;;;;;;5029876;28;20402;-63
2022/06/19 07:25:38;;;;;;;7.40;2.10;;;13.90;99.90;;;;;;5042331;28;20036;-63
2022/06/19 07:28:04;;;;;;;9.95;2.63;;;13.90;99.90;;;;;;5031313;28;20122;-63
2022/06/19 07:30:30;;;;;;;9.45;1.92;;;14.00;99.90;;;;;;5045939;28;20374;-63
2022/06/19 07:32:56;;;;;;;11.55;2.22;;;14.00;99.90;;;;;;5030730;28;20119;-62
2022/06/19 07:35:22;;;;;;;9.15;2.00;;;14.00;99.90;;;;;;5033535;28;20045;-63
2022/06/19 07:37:48;;;;;;;10.05;2.08;;;14.10;99.90;;;;;;5035219;28;20116;-63
2022/06/19 07:40:17;;;;;;;8.65;2.45;;;14.10;99.90;;;;;;5044956;28;20116;-63
2022/06/19 07:42:43;;;;;;;10.60;2.80;;;14.30;99.90;;;;;;5036834;28;20057;-63
2022/06/19 07:45:09;;;;;;;7.25;2.22;;;14.20;99.90;;;;;;5029309;28;20405;-62
2022/06/19 07:50:21;;;;;;;11.27;2.15;;;14.30;99.90;;;;;;5057106;28;20054;-64
2022/06/19 07:52:48;;;;;;;11.32;2.13;;;14.30;99.90;;;;;;5045736;28;20045;-64
2022/06/19 07:55:18;;;;;;;7.03;1.70;;;14.30;99.90;;;;;;5033919;28;20513;-63
2022/06/19 07:57:44;;;;;;;12.27;1.92;;;14.20;99.90;;;;;;5030888;28;20033;-63
2022/06/19 08:00:16;;;;;;;9.10;1.83;;;14.20;99.90;;;;;;5031641;28;20438;-64
2022/06/19 08:02:51;;;;;;;5.65;1.95;;;14.20;99.90;;;;;;5028408;28;20481;-63
2022/06/19 08:05:18;;;;;;;7.22;1.75;;;14.20;99.90;;;;;;5052162;28;20051;-63
2022/06/19 08:07:44;;;;;;;8.10;1.92;;;14.20;99.90;;;;;;5045625;28;20041;-64
2022/06/19 08:10:16;;;;;;;10.25;1.98;;;14.20;99.90;;;;;;5048815;28;20410;-63
2022/06/19 08:12:43;;;;;;;6.68;1.65;;;14.10;99.90;;;;;;5046901;28;20454;-63
2022/06/19 08:15:09;;;;;;;10.27;2.03;;;14.10;99.90;;;;;;5030119;28;20040;-63
2022/06/19 08:17:34;;;;;;;7.72;2.05;;;14.10;99.90;;;;;;5050059;28;20036;-63
2022/06/19 08:20:00;;;;;;;4.63;1.35;;;14.20;99.90;;;;;;5055485;28;20048;-63
2022/06/19 08:22:26;;;;;;;5.75;1.48;;;14.20;99.90;;;;;;5048640;28;20075;-63
2022/06/19 08:24:52;;;;;;;6.85;1.65;;;14.20;99.90;;;;;;5058646;28;20493;-63
2022/06/19 08:27:17;;;;;;;7.20;1.80;;;14.10;99.90;;;;;;5047036;28;20762;-63
2022/06/19 08:29:43;;;;;;;6.20;1.67;;;14.00;99.90;;;;;;5058553;28;20052;-63
2022/06/19 08:32:09;;;;;;;7.38;1.73;;;14.10;99.90;;;;;;5059492;28;20043;-63
2022/06/19 08:34:34;;;;;;;8.35;1.75;;;14.10;99.90;;;;;;5060701;28;20769;-63
2022/06/19 08:37:03;;;;;;;7.82;1.40;;;14.10;99.90;;;;;;5062763;28;20758;-63
2022/06/19 08:39:30;;;;;;;5.85;1.55;;;14.20;99.90;;;;;;5054025;28;20045;-63
2022/06/19 08:42:15;;;;;;;7.63;2.05;;;14.10;99.90;;;;;;5037110;28;20044;-63
2022/06/19 08:45:06;;;;;;;6.78;1.83;;;14.20;99.90;;;;;;5051758;28;20773;-63
2022/06/19 08:48:07;;;;;;;6.07;1.50;;;14.20;99.90;;;;;;5052981;28;20418;-63
2022/06/19 08:50:59;;;;;;;6.45;1.23;;;14.20;99.90;;;;;;5041161;28;20049;-62
2022/06/19 08:53:59;;;;;;;4.90;1.35;;;14.20;99.90;;;;;;5067013;28;20481;-63
2022/06/19 08:56:52;;;;;;;6.50;1.70;;;14.40;99.90;;;;;;5039986;28;20044;-63
2022/06/19 08:59:17;;;;;;;4.43;1.65;;;14.50;99.90;;;;;;5055871;28;20500;-63
2022/06/19 09:01:53;;;;;;;6.40;1.90;;;14.60;99.90;;;;;;5056587;28;20045;-63
2022/06/19 09:07:15;;;;;;;6.30;1.42;;;14.90;99.90;;;;;;5040073;28;20128;-63
2022/06/19 09:09:44;;;;;;;13.75;2.30;;;15.00;99.90;;;;;;5052401;28;20048;-63
2022/06/19 09:12:24;;;;;;;6.20;1.65;;;15.00;99.90;;;;;;5037034;28;20510;-63
2022/06/19 09:15:02;;;;;;;6.53;1.90;;;15.10;99.90;;;;;;5028745;28;20393;-63
2022/06/19 09:17:45;;;;;;;5.35;1.20;;;15.20;99.90;;;;;;5048917;28;20123;-63
2022/06/19 09:20:27;;;;;;;4.88;1.20;;;15.30;99.90;;;;;;5031898;28;20499;-64
2022/06/19 09:23:04;;;;;;;3.92;1.15;;;15.30;99.90;;;;;;5028675;28;20041;-63
2022/06/19 09:25:57;;;;;;;4.57;1.02;;;15.40;99.90;;;;;;5031589;28;20091;-64
2022/06/19 09:28:39;;;;;;;4.75;1.20;;;15.30;99.90;;;;;;5036282;28;20044;-64
2022/06/19 09:31:15;;;;;;;3.97;0.88;;;15.30;99.90;;;;;;5047396;28;20124;-64
2022/06/19 09:34:09;;;;;;;4.25;1.20;;;15.30;99.90;;;;;;5048675;28;20090;-64
2022/06/19 09:37:05;;;;;;;3.40;1.20;;;15.40;99.90;;;;;;5041394;28;20053;-64
2022/06/19 09:39:58;;;;;;;6.00;1.35;;;15.40;99.90;;;;;;5014054;28;20053;-64
2022/06/19 09:42:36;;;;;;;3.53;1.30;;;15.50;99.90;;;;;;5037283;28;20063;-64
2022/06/19 09:45:22;;;;;;;2.75;1.00;;;15.50;99.90;;;;;;5054264;28;20048;-64
2022/06/19 09:47:56;;;;;;;4.05;1.23;;;15.40;99.90;;;;;;5050761;28;20122;-64
2022/06/19 09:50:22;;;;;;;4.80;1.20;;;15.40;99.90;;;;;;5052031;28;20079;-64
2022/06/19 09:53:11;;;;;;;6.75;1.92;;;14.00;99.90;;;;;;5065177;28;20069;-63
2022/06/19 09:55:38;;;;;;;5.45;1.35;;;15.60;99.90;;;;;;5046215;28;20164;-64
2022/06/19 09:58:16;;;;;;;11.13;1.92;;;15.60;99.90;;;;;;5050452;28;20040;-63
2022/06/19 10:00:43;;;;;;;8.90;1.60;;;;;;;;;;5043493;28;20037;-64
2022/06/19 10:03:28;;;;;;;8.70;3.03;;;;;;;;;;5047044;28;20044;-63
2022/06/19 10:06:17;;;;;;;5.40;1.48;;;15.90;99.90;;;;;;5045443;28;20037;-64
2022/06/19 10:08:52;;;;;;;10.82;2.30;;;;;;;;;;5040614;28;20056;-64
2022/06/19 10:11:22;;;;;;;4.68;1.50;;;;;;;;;;5014857;28;20045;-64
2022/06/19 10:14:00;;;;;;;5.50;1.17;;;16.00;99.90;;;;;;5014991;28;20049;-64
2022/06/19 10:16:38;;;;;;;10.38;1.60;;;;;;;;;;5044278;28;20053;-64
2022/06/19 10:19:14;;;;;;;6.57;1.40;;;16.10;99.90;;;;;;5041840;28;20049;-64
2022/06/19 10:22:15;;;;;;;8.30;1.48;;;16.10;99.90;;;;;;5032568;28;20056;-64
2022/06/19 10:25:00;;;;;;;5.57;1.25;;;;;;;;;;5030043;28;20433;-64
2022/06/19 10:27:26;;;;;;;3.38;1.33;;;;;;;;;;5032671;28;20068;-64
2022/06/19 10:30:07;;;;;;;5.13;1.50;;;;;;;;;;5031560;28;20162;-64
2022/06/19 10:32:52;;;;;;;5.93;1.50;;;;;;;;;;5044727;28;20032;-64
2022/06/19 10:35:18;;;;;;;7.45;1.95;;;;;;;;;;5036287;28;20394;-64
2022/06/19 10:37:54;;;;;;;10.73;2.15;;;16.10;99.90;;;;;;5032737;28;20037;-63
2022/06/19 10:40:21;;;;;;;5.22;1.83;;;;;;;;;;5033597;28;20049;-64
2022/06/19 10:42:47;;;;;;;12.55;1.92;;;;;;;;;;5043465;28;20037;-64
2022/06/19 10:45:44;;;;;;;5.80;1.30;;;16.00;99.90;;;;;;5046601;28;20210;-64
2022/06/19 10:48:10;;;;;;;8.13;2.00;;;;;;;;;;5045159;28;20037;-64
2022/06/19 10:50:36;;;;;;;5.72;1.65;;;;;;;;;;5042206;28;20094;-64
2022/06/19 10:53:02;;;;;;;4.15;1.27;;;;;;;;;;5045257;28;20390;-64
2022/06/19 10:55:44;;;;;;;4.68;1.13;;;16.20;99.90;;;;;;5044073;28;20048;-64
2022/06/19 10:58:23;;;;;;;4.57;1.70;;;16.20;99.90;;;;;;5049732;28;20041;-64
2022/06/19 11:00:57;;;;;;;4.95;1.52;;;16.10;99.90;;;;;;5045029;28;20053;-64
2022/06/19 11:06:46;;;;;;;6.80;2.08;;;16.20;99.90;;;;;;5029211;28;20053;-65
2022/06/19 11:09:30;;;;;;;5.40;1.48;;;16.20;99.90;;;;;;5033836;28;20049;-63
2022/06/19 11:11:57;;;;;;;6.10;2.00;;;;;;;;;;5046205;28;20045;-63
2022/06/19 11:14:31;;;;;;;5.30;1.85;;;16.10;99.90;;;;;;5035027;28;20508;-64
2022/06/19 11:17:14;;;;;;;5.85;1.42;;;16.20;99.90;;;;;;5042613;28;20059;-64
2022/06/19 11:19:40;;;;;;;4.38;1.45;;;16.10;99.90;;;;;;5059233;28;20052;-64
2022/06/19 11:22:19;;;;;;;8.30;2.20;;;;;;;;;;5055413;28;20041;-64
2022/06/19 11:24:45;;;;;;;5.18;1.50;;;16.20;99.90;;;;;;5065101;28;20083;-64
2022/06/19 11:27:21;;;;;;;6.00;1.77;;;16.10;99.90;;;;;;5055032;28;20138;-64
2022/06/19 11:29:49;;;;;;;6.15;1.52;;;16.10;99.90;;;;;;5056126;28;20092;-64
2022/06/19 11:32:21;;;;;;;7.95;1.80;;;16.00;99.90;;;;;;5051786;28;20045;-64
2022/06/19 11:35:01;;;;;;;3.70;1.45;;;16.00;99.90;;;;;;5052498;28;20060;-64
2022/06/19 11:37:31;;;;;;;4.05;1.40;;;16.10;99.90;;;;;;5058343;28;20040;-64
2022/06/19 11:39:57;;;;;;;6.15;1.55;;;16.10;99.90;;;;;;5064359;28;20401;-65
2022/06/19 11:42:33;;;;;;;5.07;1.38;;;16.10;99.90;;;;;;5042793;28;20044;-65
2022/06/19 11:45:05;;;;;;;6.22;2.05;;;16.10;99.90;;;;;;5059970;28;20043;-65
2022/06/19 11:47:38;;;;;;;5.75;1.30;;;16.10;99.90;;;;;;5045492;28;20568;-64
2022/06/19 11:50:22;;;;;;;7.00;1.85;;;16.20;99.90;;;;;;5045898;28;20517;-64
2022/06/19 11:52:58;;;;;;;5.35;1.38;;;16.00;99.90;;;;;;5014335;28;20073;-64
2022/06/19 11:55:47;;;;;;;8.73;2.05;;;16.00;99.90;;;;;;5032331;28;20411;-64
2022/06/19 11:58:26;;;;;;;6.22;1.50;;;16.00;99.90;;;;;;5031675;28;20087;-64
2022/06/19 12:01:10;;;;;;;7.05;1.48;;;16.00;99.90;;;;;;5030980;28;20091;-64
2022/06/19 12:03:50;;;;;;;5.38;1.48;;;16.00;99.90;;;;;;5030403;28;20522;-64
2022/06/19 12:06:46;;;;;;;6.68;1.77;;;16.00;99.90;;;;;;5031792;28;20116;-64
2022/06/19 12:09:38;;;;;;;5.70;1.63;;;16.10;99.90;;;;;;5030843;28;20047;-64
2022/06/19 12:12:13;;;;;;;7.03;1.35;;;16.50;99.90;;;;;;5031184;28;20103;-64
2022/06/19 12:14:50;;;;;;;;;;;16.70;99.90;;;;;;5032229;28;20053;-64
2022/06/19 12:17:19;;;;;;;8.00;2.22;;;17.00;99.90;;;;;;5047379;28;19917;-64
2022/06/19 12:20:03;;;;;;;7.57;1.65;;;17.00;99.90;;;;;;5032414;28;20441;-65
2022/06/19 12:22:35;;;;;;;5.25;1.88;;;17.30;99.90;;;;;;5031919;28;20072;-64
2022/06/19 12:25:32;;;;;;;4.13;1.15;;;17.40;99.90;;;;;;5030301;28;20406;-65
2022/06/19 12:28:14;;;;;;;5.60;1.38;;;17.50;99.90;;;;;;5043608;28;20049;-65
2022/06/19 12:31:05;;;;;;;6.45;1.90;;;17.50;99.90;;;;;;5030574;28;20046;-71
2022/06/19 12:33:42;;;;;;;6.47;1.83;;;17.50;99.90;;;;;;5032760;28;20095;-71
2022/06/19 12:36:20;;;;;;;7.82;2.05;;;17.70;99.90;;;;;;5031141;28;20520;-71
2022/06/19 12:38:49;;;;;;;17.50;2.13;;;17.60;99.90;;;;;;5030368;28;20038;-71
2022/06/19 12:41:26;;;;;;;5.50;1.50;;;17.70;99.90;;;;;;5032546;28;20049;-71
2022/06/19 12:43:52;;;;;;;4.63;1.35;;;;;;;;;;5030950;28;20368;-71
2022/06/19 12:46:27;;;;;;;7.15;1.55;;;17.70;99.90;;;;;;5031349;28;20053;-71
2022/06/19 12:49:12;;;;;;;5.22;1.67;;;17.70;99.90;;;;;;5030586;28;20132;-71
2022/06/19 12:51:50;;;;;;;;;;;17.70;99.90;;;;;;5031976;28;20037;-72
2022/06/19 12:54:50;;;;;;;7.22;1.70;;;17.50;99.90;;;;;;5032553;28;19928;-72
2022/06/19 12:57:26;;;;;;;6.55;1.65;;;17.50;99.90;;;;;;5014581;28;20042;-72
2022/06/19 12:59:58;;;;;;;6.40;1.50;;;17.60;99.90;;;;;;5030751;28;20038;-70
2022/06/19 13:02:27;;;;;;;9.05;1.75;;;17.70;99.90;;;;;;5032066;28;20478;-72
2022/06/19 13:05:12;;;;;;;6.32;1.50;;;;;;;;;;5030622;28;20049;-71
2022/06/19 13:07:46;;;;;;;4.90;1.25;;;18.10;99.90;;;;;;5030950;28;20053;-71
2022/06/19 13:10:45;;;;;;;6.45;1.50;;;18.30;99.90;;;;;;5030496;28;20042;-71
2022/06/19 13:13:14;;;;;;;9.15;1.95;;;18.40;99.90;;;;;;5034130;28;20041;-71
2022/06/19 13:15:59;;;;;;;7.18;1.70;;;18.30;99.90;;;;;;5034994;28;20073;-72
2022/06/19 13:18:51;;;;;;;7.28;1.90;;;18.40;99.90;;;;;;5035237;28;20117;-72
2022/06/19 13:21:31;;;;;;;5.65;1.95;;;18.50;99.90;;;;;;5034508;28;20617;-71
2022/06/19 13:24:11;;;;;;;6.53;1.73;;;18.50;99.90;;;;;;5035632;28;20124;-71
2022/06/19 13:29:51;;;;;;;6.95;2.30;;;18.70;99.90;;;;;;5034922;28;20466;-71